createdAt,value
2022-12-11T00:00:53.084Z,95.51
2022-12-11T00:03:40.448Z,95.59
2022-12-11T00:06:10.422Z,95.23
2022-12-11T00:08:39.012Z,95.10
2022-12-11T00:11:12.702Z,95.36
2022-12-11T00:13:40.302Z,95.20
2022-12-11T00:16:08.564Z,95.19
2022-12-11T00:18:36.561Z,95.34
2022-12-11T00:21:06.544Z,95.16
2022-12-11T00:23:35.771Z,95.07
2022-12-11T00:26:09.375Z,95.35
2022-12-11T00:28:37.046Z,95.35
2022-12-11T00:31:09.173Z,95.65
2022-12-11T00:33:36.734Z,95.11
2022-12-11T00:36:09.831Z,94.99
2022-12-11T00:38:37.478Z,95.21
2022-12-11T00:41:05.164Z,95.23
2022-12-11T00:43:32.738Z,95.25
2022-12-11T00:46:00.790Z,95.14
2022-12-11T00:48:28.425Z,95.35
2022-12-11T00:50:56.008Z,95.21
2022-12-11T00:53:23.776Z,95.40
2022-12-11T00:55:51.348Z,95.33
2022-12-11T00:58:19.515Z,95.29
2022-12-11T01:00:48.302Z,95.24
2022-12-11T01:03:17.072Z,95.17
2022-12-11T01:05:53.040Z,94.97
2022-12-11T01:08:21.120Z,95.05
2022-12-11T01:10:48.767Z,95.34
2022-12-11T01:13:16.379Z,95.38
2022-12-11T01:15:45.343Z,95.28
2022-12-11T01:18:14.732Z,95.34
2022-12-11T01:20:43.371Z,95.29
2022-12-11T01:23:13.149Z,95.38
2022-12-11T01:25:42.393Z,95.10
2022-12-11T01:28:11.206Z,95.21
2022-12-11T01:30:42.653Z,95.23
2022-12-11T01:33:10.437Z,95.26
2022-12-11T01:35:39.091Z,95.23
2022-12-11T01:38:06.668Z,95.32
2022-12-11T01:40:34.266Z,95.30
2022-12-11T01:43:02.438Z,95.04
2022-12-11T01:45:34.868Z,94.73
2022-12-11T01:48:12.368Z,94.58
2022-12-11T01:50:52.374Z,94.85
2022-12-11T01:53:24.166Z,94.68
2022-12-11T01:55:55.016Z,95.35
2022-12-11T01:58:27.264Z,94.96
2022-12-11T02:00:56.021Z,94.96
2022-12-11T02:03:24.014Z,94.87
2022-12-11T02:05:52.236Z,94.91
2022-12-11T02:08:20.592Z,95.02
2022-12-11T02:11:04.206Z,95.01
2022-12-11T02:13:36.344Z,95.25
2022-12-11T02:16:19.562Z,95.08
2022-12-11T02:19:00.456Z,95.13
2022-12-11T02:21:50.830Z,94.95
2022-12-11T02:24:34.418Z,95.34
2022-12-11T02:27:20.549Z,95.39
2022-12-11T02:29:56.336Z,95.48
2022-12-11T02:32:54.119Z,94.94
2022-12-11T02:35:28.272Z,94.73
2022-12-11T02:38:07.977Z,94.97
2022-12-11T02:40:40.767Z,94.93
2022-12-11T02:43:11.657Z,94.97
2022-12-11T02:45:41.752Z,95.02
2022-12-11T02:48:12.776Z,95.13
2022-12-11T02:50:46.051Z,94.74
2022-12-11T02:53:18.813Z,95.20
2022-12-11T02:55:50.801Z,95.12
2022-12-11T02:58:22.530Z,95.29
2022-12-11T03:00:51.124Z,95.27
2022-12-11T03:03:18.785Z,95.43
2022-12-11T03:05:46.375Z,95.13
2022-12-11T03:08:18.634Z,95.20
2022-12-11T03:10:46.378Z,95.35
2022-12-11T03:13:19.341Z,95.28
2022-12-11T03:15:59.476Z,94.98
2022-12-11T03:18:33.076Z,95.41
2022-12-11T03:21:05.575Z,95.42
2022-12-11T03:23:53.739Z,95.08
2022-12-11T03:26:23.748Z,95.32
2022-12-11T03:28:59.538Z,95.42
2022-12-11T03:31:29.895Z,95.41
2022-12-11T03:34:03.452Z,95.38
2022-12-11T03:36:34.828Z,95.62
2022-12-11T03:39:09.575Z,95.59
2022-12-11T03:41:40.160Z,95.41
2022-12-11T03:44:09.058Z,95.38
2022-12-11T03:46:41.055Z,95.69
2022-12-11T03:49:18.932Z,95.78
2022-12-11T03:51:49.149Z,95.49
2022-12-11T03:54:17.835Z,95.15
2022-12-11T03:56:46.609Z,95.16
2022-12-11T03:59:14.292Z,95.40
2022-12-11T04:01:41.859Z,95.29
2022-12-11T04:04:09.523Z,95.41
2022-12-11T04:06:37.099Z,95.50
2022-12-11T04:09:04.809Z,95.84
2022-12-11T04:11:35.358Z,96.09
2022-12-11T04:14:24.944Z,96.05
2022-12-11T04:16:53.344Z,96.11
2022-12-11T04:19:39.788Z,95.85
2022-12-11T04:22:24.006Z,96.32
2022-12-11T04:24:51.656Z,96.34
2022-12-11T04:27:39.703Z,96.27
2022-12-11T04:30:12.303Z,96.33
2022-12-11T04:32:39.892Z,96.19
2022-12-11T04:35:09.970Z,96.29
2022-12-11T04:37:38.581Z,96.02
2022-12-11T04:40:09.959Z,95.82
2022-12-11T04:42:37.931Z,95.93
2022-12-11T04:45:08.288Z,96.14
2022-12-11T04:47:37.240Z,95.97
2022-12-11T04:50:06.632Z,96.11
2022-12-11T04:52:34.256Z,96.18
2022-12-11T04:55:04.593Z,96.25
2022-12-11T04:57:32.140Z,96.39
2022-12-11T04:59:59.964Z,96.27
2022-12-11T05:02:27.624Z,96.30
2022-12-11T05:04:55.320Z,96.10
2022-12-11T05:07:22.870Z,96.07
2022-12-11T05:09:50.443Z,96.03
2022-12-11T05:12:17.984Z,96.19
2022-12-11T05:14:45.672Z,96.24
2022-12-11T05:17:13.442Z,96.24
2022-12-11T05:19:41.061Z,96.06
2022-12-11T05:22:08.614Z,96.48
2022-12-11T05:24:36.183Z,96.45
2022-12-11T05:27:03.828Z,96.17
2022-12-11T05:29:31.358Z,96.13
2022-12-11T05:31:59.220Z,96.11
2022-12-11T05:34:27.131Z,96.27
2022-12-11T05:36:54.696Z,96.07
2022-12-11T05:39:23.260Z,96.41
2022-12-11T05:41:50.816Z,96.30
2022-12-11T05:44:18.399Z,96.55
2022-12-11T05:46:45.956Z,96.25
2022-12-11T05:49:13.559Z,96.35
2022-12-11T05:51:41.456Z,96.15
2022-12-11T05:54:10.128Z,96.51
2022-12-11T05:56:38.217Z,96.28
2022-12-11T05:59:06.699Z,96.45
2022-12-11T06:01:40.697Z,96.39
2022-12-11T06:04:10.503Z,96.02
2022-12-11T06:06:38.595Z,95.89
2022-12-11T06:09:06.644Z,95.98
2022-12-11T06:11:35.641Z,95.91
2022-12-11T06:14:04.126Z,95.97
2022-12-11T06:16:32.935Z,96.29
2022-12-11T06:19:00.711Z,96.18
2022-12-11T06:21:30.693Z,96.24
2022-12-11T06:24:02.168Z,96.31
2022-12-11T06:26:29.836Z,96.20
2022-12-11T06:28:58.061Z,95.93
2022-12-11T06:31:25.660Z,96.48
2022-12-11T06:33:54.235Z,96.55
2022-12-11T06:36:23.749Z,96.30
2022-12-11T06:38:52.216Z,96.52
2022-12-11T06:41:19.788Z,96.45
2022-12-11T06:43:47.464Z,96.41
2022-12-11T06:46:18.123Z,96.53
2022-12-11T06:48:47.220Z,96.72
2022-12-11T06:51:18.253Z,96.75
2022-12-11T06:53:50.830Z,96.77
2022-12-11T06:56:18.922Z,96.85
2022-12-11T06:58:46.511Z,96.83
2022-12-11T07:01:22.899Z,96.99
2022-12-11T07:03:53.513Z,96.89
2022-12-11T07:06:22.306Z,96.71
2022-12-11T07:08:49.937Z,96.85
2022-12-11T07:11:19.784Z,97.00
2022-12-11T07:13:47.860Z,96.82
2022-12-11T07:16:17.500Z,96.94
2022-12-11T07:18:50.393Z,96.87
2022-12-11T07:21:20.269Z,97.01
2022-12-11T07:23:49.671Z,97.16
2022-12-11T07:26:20.704Z,96.74
2022-12-11T07:28:48.867Z,96.48
2022-12-11T07:31:20.397Z,96.42
2022-12-11T07:33:47.975Z,96.41
2022-12-11T07:36:16.732Z,96.52
2022-12-11T07:38:44.734Z,96.70
2022-12-11T07:41:14.079Z,96.80
2022-12-11T07:43:42.802Z,96.70
2022-12-11T08:11:23.032Z,95.76
2022-12-11T08:13:50.703Z,95.29
2022-12-11T08:16:19.897Z,95.70
2022-12-11T08:18:48.256Z,96.25
2022-12-11T08:21:19.599Z,96.23
2022-12-11T08:23:48.889Z,96.68
2022-12-11T08:26:20.221Z,96.69
2022-12-11T08:28:47.773Z,96.70
2022-12-11T08:31:16.741Z,96.38
2022-12-11T08:33:44.883Z,96.99
2022-12-11T08:36:14.981Z,97.13
2022-12-11T08:38:43.149Z,96.67
2022-12-11T08:41:16.127Z,97.03
2022-12-11T08:43:44.608Z,97.10
2022-12-11T08:46:13.395Z,97.03
2022-12-11T08:48:43.098Z,96.97
2022-12-11T08:51:14.801Z,96.83
2022-12-11T08:53:43.077Z,96.77
2022-12-11T08:56:13.435Z,96.92
2022-12-11T08:58:41.924Z,96.94
2022-12-11T09:01:21.681Z,97.33
2022-12-11T09:03:50.955Z,97.13
2022-12-11T09:06:21.338Z,97.19
2022-12-11T09:08:53.030Z,97.32
2022-12-11T09:11:23.878Z,97.08
2022-12-11T09:13:52.350Z,97.00
2022-12-11T09:16:22.117Z,96.63
2022-12-11T09:18:51.678Z,96.95
2022-12-11T09:21:22.138Z,96.90
2022-12-11T09:23:52.897Z,96.94
2022-12-11T09:26:20.909Z,97.15
2022-12-11T09:28:51.181Z,97.45
2022-12-11T09:31:23.513Z,97.11
2022-12-11T09:33:54.334Z,97.29
2022-12-11T09:36:22.799Z,97.20
2022-12-11T09:38:50.886Z,97.28
2022-12-11T09:41:21.598Z,97.22
2022-12-11T09:43:59.818Z,97.20
2022-12-11T09:46:33.527Z,96.98
2022-12-11T09:49:03.763Z,97.09
2022-12-11T09:51:46.809Z,97.06
2022-12-11T09:54:14.998Z,97.22
2022-12-11T09:56:53.738Z,97.21
2022-12-11T09:59:37.242Z,97.30
2022-12-11T10:02:41.070Z,97.06
2022-12-11T10:05:30.797Z,97.38
2022-12-11T10:08:10.422Z,97.10
2022-12-11T10:11:03.396Z,97.19
2022-12-11T10:13:56.585Z,97.14
2022-12-11T10:16:43.819Z,96.92
2022-12-11T10:19:18.193Z,96.92
2022-12-11T10:21:47.784Z,97.39
2022-12-11T10:25:09.943Z,97.17
2022-12-11T10:27:32.836Z,97.25
2022-12-11T10:30:25.481Z,97.49
2022-12-11T10:33:29.269Z,97.17
2022-12-11T10:35:58.143Z,97.17
2022-12-11T10:38:46.165Z,97.30
2022-12-11T10:41:17.945Z,97.45
2022-12-11T10:43:48.519Z,97.43
2022-12-11T10:46:28.393Z,97.31
2022-12-11T10:48:59.070Z,97.23
2022-12-11T10:51:26.614Z,97.76
2022-12-11T10:54:02.589Z,97.23
2022-12-11T10:56:35.664Z,97.72
2022-12-11T10:59:03.909Z,97.53
2022-12-11T11:01:32.815Z,97.58
2022-12-11T11:04:14.338Z,97.28
2022-12-11T11:06:41.882Z,97.65
2022-12-11T11:09:28.922Z,97.40
2022-12-11T11:11:56.501Z,97.93
2022-12-11T11:14:24.134Z,97.88
2022-12-11T11:16:56.523Z,97.73
2022-12-11T11:19:34.779Z,97.83
2022-12-11T11:22:19.532Z,98.09
2022-12-11T11:25:05.074Z,98.06
2022-12-11T11:27:43.826Z,97.92
2022-12-11T11:30:38.630Z,97.98
2022-12-11T11:33:15.828Z,98.07
2022-12-11T11:36:02.595Z,98.09
2022-12-11T11:38:43.531Z,98.00
2022-12-11T11:41:43.111Z,97.84
2022-12-11T11:44:16.107Z,97.99
2022-12-11T11:46:49.984Z,97.90
2022-12-11T11:49:41.799Z,98.03
2022-12-11T11:52:25.232Z,97.67
2022-12-11T11:55:21.765Z,97.69
2022-12-11T11:58:00.440Z,97.60
2022-12-11T12:00:33.601Z,97.97
2022-12-11T12:03:19.137Z,97.76
2022-12-11T12:06:15.275Z,97.58
2022-12-11T12:09:14.319Z,97.63
2022-12-11T12:11:57.254Z,97.44
2022-12-11T12:17:32.437Z,97.86
2022-12-11T12:20:16.179Z,97.79
2022-12-11T12:22:59.700Z,98.09
2022-12-11T12:25:43.234Z,97.82
2022-12-11T12:28:39.475Z,98.04
2022-12-11T12:31:23.099Z,98.02
2022-12-11T12:34:14.110Z,98.22
2022-12-11T12:36:55.171Z,98.42
2022-12-11T12:39:38.429Z,98.20
2022-12-11T12:42:38.007Z,98.23
2022-12-11T12:45:24.917Z,98.10
2022-12-11T12:47:53.657Z,98.20
2022-12-11T12:50:31.524Z,98.15
2022-12-11T12:52:59.536Z,98.11
2022-12-11T12:55:31.887Z,98.03
2022-12-11T12:58:02.766Z,98.29
2022-12-11T13:00:47.344Z,98.20
2022-12-11T13:03:29.170Z,98.23
2022-12-11T13:06:07.631Z,98.37
2022-12-11T13:08:51.721Z,98.26
2022-12-11T13:11:21.499Z,98.42
2022-12-11T13:14:02.957Z,98.16
2022-12-11T13:16:40.235Z,98.51
2022-12-11T13:19:23.860Z,98.67
2022-12-11T13:22:21.386Z,98.51
2022-12-11T13:24:53.077Z,98.57
2022-12-11T13:27:38.223Z,98.61
2022-12-11T13:30:07.982Z,98.80
2022-12-11T13:32:36.610Z,98.63
2022-12-11T13:35:07.446Z,98.53
2022-12-11T13:37:43.999Z,98.65
2022-12-11T13:40:20.021Z,98.58
2022-12-11T13:42:54.381Z,98.72
2022-12-11T13:45:28.242Z,98.73
2022-12-11T13:48:00.047Z,98.69
2022-12-11T13:50:33.247Z,98.62
2022-12-11T13:53:02.721Z,98.59
2022-12-11T13:55:35.130Z,98.63
2022-12-11T13:58:02.719Z,98.69
2022-12-11T14:00:32.803Z,98.74
2022-12-11T14:03:07.494Z,98.67
2022-12-11T14:05:35.843Z,99.03
2022-12-11T14:08:10.317Z,99.23
2022-12-11T14:10:39.844Z,99.16
2022-12-11T14:13:33.521Z,98.96
2022-12-11T14:16:02.668Z,99.13
2022-12-11T14:18:33.908Z,99.16
2022-12-11T14:21:04.869Z,99.28
2022-12-11T14:23:34.965Z,99.24
2022-12-11T14:26:25.675Z,99.33
2022-12-11T14:28:53.693Z,99.45
2022-12-11T14:31:31.585Z,99.35
2022-12-11T14:34:06.921Z,99.36
2022-12-11T14:36:36.423Z,98.99
2022-12-11T14:39:13.816Z,99.32
2022-12-11T14:41:53.454Z,99.20
2022-12-11T14:44:24.994Z,99.34
2022-12-11T14:47:00.465Z,99.25
2022-12-11T14:49:50.212Z,99.11
2022-12-11T14:52:23.425Z,99.17
2022-12-11T14:54:57.043Z,99.11
2022-12-11T14:57:26.199Z,99.60
2022-12-11T14:59:56.328Z,99.88
2022-12-11T15:02:32.601Z,99.92
2022-12-11T15:05:10.441Z,99.79
2022-12-11T15:07:38.993Z,99.74
2022-12-11T15:10:07.103Z,99.90
2022-12-11T15:12:34.930Z,99.44
2022-12-11T15:15:07.560Z,99.31
2022-12-11T15:17:37.450Z,99.41
2022-12-11T15:20:14.518Z,99.46
2022-12-11T15:22:43.939Z,99.63
2022-12-11T15:25:28.903Z,99.27
2022-12-11T15:27:59.609Z,99.40
2022-12-11T15:30:31.807Z,99.40
2022-12-11T15:33:02.468Z,99.22
2022-12-11T15:35:30.488Z,99.35
2022-12-11T15:37:58.529Z,99.52
2022-12-11T15:40:30.244Z,99.47
2022-12-11T15:43:04.754Z,99.23
2022-12-11T15:45:32.435Z,99.30
2022-12-11T15:47:59.986Z,99.05
2022-12-11T15:50:29.137Z,99.81
2022-12-11T15:52:57.202Z,99.56
2022-12-11T15:55:27.435Z,99.59
2022-12-11T15:57:59.290Z,99.68
2022-12-11T16:00:30.457Z,99.86
2022-12-11T16:02:58.388Z,99.83
2022-12-11T16:05:26.956Z,99.88
2022-12-11T16:07:56.523Z,99.71
2022-12-11T16:10:24.263Z,99.87
2022-12-11T16:12:51.817Z,99.73
2022-12-11T16:15:23.425Z,99.76
2022-12-11T16:18:00.560Z,99.52
2022-12-11T16:20:28.703Z,99.50
2022-12-11T16:22:57.415Z,99.41
2022-12-11T16:25:26.918Z,99.30
2022-12-11T16:27:59.011Z,99.46
2022-12-11T16:30:28.287Z,99.21
2022-12-11T16:32:56.623Z,99.57
2022-12-11T16:35:24.235Z,99.69
2022-12-11T16:37:53.326Z,99.71
2022-12-11T16:40:21.974Z,99.82
2022-12-11T16:42:50.386Z,99.58
2022-12-11T16:45:21.103Z,99.74
2022-12-11T16:47:49.080Z,99.75
2022-12-11T16:50:17.339Z,99.87
2022-12-11T16:52:46.896Z,99.75
2022-12-11T16:55:15.599Z,99.89
2022-12-11T16:57:43.219Z,99.81
2022-12-11T17:00:12.744Z,99.76
2022-12-11T17:02:40.686Z,99.76
2022-12-11T17:05:08.745Z,99.67
2022-12-11T17:07:36.523Z,99.88
2022-12-11T17:10:04.909Z,99.94
2022-12-11T17:12:32.520Z,100.00
2022-12-11T17:15:00.121Z,99.89
2022-12-11T17:17:27.744Z,99.92
2022-12-11T17:19:56.705Z,99.98
2022-12-11T17:22:24.352Z,99.95
2022-12-11T17:24:52.005Z,99.97
2022-12-11T17:27:19.667Z,99.92
2022-12-11T17:29:49.475Z,99.97
2022-12-11T17:32:18.389Z,99.94
2022-12-11T17:34:49.545Z,99.88
2022-12-11T17:37:17.872Z,100.00
2022-12-11T17:39:47.211Z,99.88
2022-12-11T17:42:14.839Z,99.99
2022-12-11T17:44:45.319Z,99.90
2022-12-11T17:47:13.211Z,99.94
2022-12-11T17:49:41.206Z,99.97
2022-12-11T17:52:09.082Z,99.95
2022-12-11T17:54:36.869Z,99.86
2022-12-11T17:57:06.368Z,99.94
2022-12-11T17:59:34.014Z,99.99
2022-12-11T18:02:01.645Z,100.00
2022-12-11T18:04:29.275Z,100.00
2022-12-11T18:06:57.084Z,99.99
2022-12-11T18:09:24.689Z,99.95
2022-12-11T18:11:52.965Z,99.96
2022-12-11T18:14:20.543Z,99.90
2022-12-11T18:16:48.460Z,100.00
2022-12-11T18:19:16.250Z,99.70
2022-12-11T18:21:45.663Z,99.74
2022-12-11T18:24:13.293Z,99.76
2022-12-11T18:26:42.812Z,99.88
2022-12-11T18:29:10.604Z,99.81
2022-12-11T18:31:42.708Z,99.50
2022-12-11T18:34:11.493Z,99.53
2022-12-11T18:36:40.674Z,99.62
2022-12-11T18:39:08.254Z,99.61
2022-12-11T18:41:35.868Z,99.61
2022-12-11T18:44:09.303Z,99.70
2022-12-11T18:46:39.609Z,99.44
2022-12-11T18:49:08.466Z,99.47
2022-12-11T18:51:36.074Z,99.65
2022-12-11T18:54:03.828Z,99.70
2022-12-11T18:56:31.425Z,99.55
2022-12-11T18:58:59.103Z,99.47
2022-12-11T19:01:28.992Z,99.59
2022-12-11T19:04:02.724Z,99.32
2022-12-11T19:06:33.170Z,99.13
2022-12-11T19:09:02.400Z,99.02
2022-12-11T19:11:31.318Z,99.28
2022-12-11T19:13:59.513Z,99.18
2022-12-11T19:16:29.889Z,99.19
2022-12-11T19:18:58.822Z,99.33
2022-12-11T19:21:27.288Z,99.06
2022-12-11T19:23:54.889Z,99.27
2022-12-11T19:26:24.052Z,99.33
2022-12-11T19:28:53.261Z,99.27
2022-12-11T19:31:22.799Z,99.11
2022-12-11T19:33:50.775Z,99.12
2022-12-11T19:36:21.386Z,99.16
2022-12-11T19:38:49.157Z,98.93
2022-12-11T19:41:24.004Z,99.33
2022-12-11T19:43:51.564Z,99.14
2022-12-11T19:46:20.204Z,99.03
2022-12-11T19:48:50.006Z,98.85
2022-12-11T19:51:25.624Z,99.08
2022-12-11T19:53:53.336Z,99.22
2022-12-11T19:56:21.354Z,99.02
2022-12-11T19:58:49.884Z,99.12
2022-12-11T20:01:22.336Z,99.25
2022-12-11T20:03:51.206Z,98.76
2022-12-11T20:06:19.721Z,99.11
2022-12-11T20:08:47.506Z,99.27
2022-12-11T20:11:18.725Z,99.15
2022-12-11T20:13:48.120Z,99.03
2022-12-11T20:16:20.014Z,99.13
2022-12-11T20:18:57.289Z,99.16
2022-12-11T20:21:24.990Z,99.30
2022-12-11T20:23:52.862Z,99.46
2022-12-11T20:26:23.730Z,99.08
2022-12-11T20:28:52.748Z,99.36
2022-12-11T20:31:25.604Z,99.31
2022-12-11T20:33:56.060Z,99.60
2022-12-11T20:36:25.112Z,99.60
2022-12-11T20:38:53.166Z,99.55
2022-12-11T20:41:24.108Z,99.26
2022-12-11T20:43:55.739Z,99.38
2022-12-11T20:46:25.982Z,99.59
2022-12-11T20:48:56.005Z,99.44
2022-12-11T20:51:26.373Z,99.55
2022-12-11T20:53:59.646Z,99.58
2022-12-11T20:56:30.183Z,99.83
2022-12-11T20:58:59.318Z,99.61
2022-12-11T21:01:30.315Z,99.75
2022-12-11T21:03:59.417Z,99.80
2022-12-11T21:06:31.313Z,99.91
2022-12-11T21:09:12.641Z,99.84
2022-12-11T21:11:40.472Z,99.87
2022-12-11T21:14:08.138Z,99.97
2022-12-11T21:16:37.150Z,100.00
2022-12-11T21:19:06.834Z,100.00
2022-12-11T21:21:42.184Z,100.00
2022-12-11T21:24:16.548Z,100.00
2022-12-11T21:26:45.411Z,100.00
2022-12-11T21:29:13.811Z,100.00
2022-12-11T21:31:42.644Z,100.00
2022-12-11T21:34:10.618Z,100.00
2022-12-11T21:36:38.198Z,100.00
2022-12-11T21:39:06.215Z,100.00
2022-12-11T21:41:34.154Z,100.00
2022-12-11T21:46:50.373Z,100.00
2022-12-11T21:49:17.917Z,100.00
2022-12-11T21:51:47.537Z,100.00
2022-12-11T21:54:18.423Z,100.00
2022-12-11T21:56:46.602Z,100.00
2022-12-11T21:59:14.553Z,100.00
2022-12-11T22:01:48.311Z,100.00
2022-12-11T22:04:16.718Z,100.00
2022-12-11T22:06:46.984Z,100.00
2022-12-11T22:09:16.388Z,100.00
2022-12-11T22:11:45.647Z,100.00
2022-12-11T22:14:17.931Z,100.00
2022-12-11T22:16:46.072Z,100.00
2022-12-11T22:19:13.778Z,100.00
2022-12-11T22:21:41.398Z,100.00
2022-12-11T22:24:09.366Z,100.00
2022-12-11T22:26:37.049Z,100.00
2022-12-11T22:29:04.615Z,100.00
2022-12-11T22:31:32.392Z,100.00
2022-12-11T22:34:00.023Z,100.00
2022-12-11T22:36:27.665Z,100.00
2022-12-11T22:38:55.669Z,100.00
2022-12-11T22:41:29.258Z,100.00
2022-12-11T22:43:58.441Z,100.00
2022-12-11T22:46:30.809Z,100.00
2022-12-11T22:48:59.109Z,100.00
2022-12-11T22:51:27.037Z,100.00
2022-12-11T22:53:54.920Z,100.00
2022-12-11T22:56:22.532Z,100.00
2022-12-11T22:58:50.303Z,100.00
2022-12-11T23:01:21.903Z,100.00
2022-12-11T23:03:49.533Z,100.00
2022-12-11T23:06:20.682Z,100.00
2022-12-11T23:08:48.907Z,100.00
2022-12-11T23:11:24.562Z,100.00
2022-12-11T23:13:53.546Z,100.00
2022-12-11T23:16:24.070Z,100.00
2022-12-11T23:18:52.203Z,100.00
2022-12-11T23:21:20.117Z,100.00
2022-12-11T23:23:48.141Z,100.00
2022-12-11T23:26:18.626Z,100.00
2022-12-11T23:28:47.080Z,100.00
2022-12-11T23:31:15.364Z,100.00
2022-12-11T23:33:43.164Z,100.00
2022-12-11T23:36:11.286Z,100.00
2022-12-11T23:38:40.282Z,100.00
2022-12-11T23:41:09.973Z,100.00
2022-12-11T23:43:37.976Z,100.00
2022-12-11T23:46:10.436Z,100.00
2022-12-11T23:48:38.182Z,100.00
2022-12-11T23:51:06.391Z,100.00
2022-12-11T23:53:34.316Z,100.00
2022-12-11T23:56:24.232Z,100.00
2022-12-11T23:58:52.867Z,100.00
